sensor_id;sensor_type;location;lat;lon;timestamp;pressure;altitude;pressure_sealevel;temperature;humidity
71976;BME280;68326;52.124;5.424;2023-03-05T00:00:43;102282.88;;;4.60;83.42
71976;BME280;68326;52.124;5.424;2023-03-05T00:03:10;102283.72;;;4.56;83.48
71976;BME280;68326;52.124;5.424;2023-03-05T00:05:37;102274.28;;;4.61;83.99
71976;BME280;68326;52.124;5.424;2023-03-05T00:08:03;102272.53;;;4.66;83.03
71976;BME280;68326;52.124;5.424;2023-03-05T00:10:30;102275.97;;;4.62;82.08
71976;BME280;68326;52.124;5.424;2023-03-05T00:12:56;102269.97;;;4.62;83.48
71976;BME280;68326;52.124;5.424;2023-03-05T00:15:23;102271.69;;;4.63;82.68
71976;BME280;68326;52.124;5.424;2023-03-05T00:17:49;102265.66;;;4.62;82.69
71976;BME280;68326;52.124;5.424;2023-03-05T00:20:16;102261.38;;;4.58;82.51
71976;BME280;68326;52.124;5.424;2023-03-05T00:22:42;102259.66;;;4.59;82.64
71976;BME280;68326;52.124;5.424;2023-03-05T00:25:09;102263.09;;;4.56;82.68
71976;BME280;68326;52.124;5.424;2023-03-05T00:27:36;102255.38;;;4.52;82.99
71976;BME280;68326;52.124;5.424;2023-03-05T00:30:02;102257.97;;;4.52;82.97
71976;BME280;68326;52.124;5.424;2023-03-05T00:32:29;102255.38;;;4.55;82.78
71976;BME280;68326;52.124;5.424;2023-03-05T00:34:56;102251.06;;;4.58;82.87
71976;BME280;68326;52.124;5.424;2023-03-05T00:37:22;102239.06;;;4.57;82.77
71976;BME280;68326;52.124;5.424;2023-03-05T00:39:48;102245.94;;;4.55;82.78
71976;BME280;68326;52.124;5.424;2023-03-05T00:42:15;102250.22;;;4.52;83.25
71976;BME280;68326;52.124;5.424;2023-03-05T00:44:41;102253.69;;;4.43;83.20
71976;BME280;68326;52.124;5.424;2023-03-05T00:47:08;102241.69;;;4.36;83.82
71976;BME280;68326;52.124;5.424;2023-03-05T00:49:34;102241.69;;;4.34;83.65
71976;BME280;68326;52.124;5.424;2023-03-05T00:52:01;102241.69;;;4.36;83.89
71976;BME280;68326;52.124;5.424;2023-03-05T00:54:27;102241.69;;;4.33;83.89
71976;BME280;68326;52.124;5.424;2023-03-05T00:56:54;102240.81;;;4.32;83.54
71976;BME280;68326;52.124;5.424;2023-03-05T00:59:20;102235.66;;;4.23;83.65
71976;BME280;68326;52.124;5.424;2023-03-05T01:01:46;102232.25;;;4.19;84.23
71976;BME280;68326;52.124;5.424;2023-03-05T01:04:13;102238.28;;;4.14;84.12
71976;BME280;68326;52.124;5.424;2023-03-05T01:06:40;102236.56;;;4.06;84.39
71976;BME280;68326;52.124;5.424;2023-03-05T01:09:10;102232.28;;;4.04;85.40
71976;BME280;68326;52.124;5.424;2023-03-05T01:11:36;102227.13;;;4.04;85.71
71976;BME280;68326;52.124;5.424;2023-03-05T01:14:03;102225.41;;;4.06;85.31
71976;BME280;68326;52.124;5.424;2023-03-05T01:16:29;102216.81;;;4.08;85.69
71976;BME280;68326;52.124;5.424;2023-03-05T01:18:56;102214.22;;;4.13;85.49
71976;BME280;68326;52.124;5.424;2023-03-05T01:21:22;102219.41;;;4.04;84.95
71976;BME280;68326;52.124;5.424;2023-03-05T01:23:49;102215.94;;;4.03;85.71
71976;BME280;68326;52.124;5.424;2023-03-05T01:26:15;102212.53;;;4.04;86.11
71976;BME280;68326;52.124;5.424;2023-03-05T01:28:42;102199.63;;;4.07;86.27
71976;BME280;68326;52.124;5.424;2023-03-05T01:31:09;102197.06;;;4.04;85.83
71976;BME280;68326;52.124;5.424;2023-03-05T01:33:36;102191.06;;;3.99;85.54
71976;BME280;68326;52.124;5.424;2023-03-05T01:36:07;102197.94;;;3.96;86.33
71976;BME280;68326;52.124;5.424;2023-03-05T01:38:34;102193.66;;;3.93;85.98
71976;BME280;68326;52.124;5.424;2023-03-05T01:41:00;102191.09;;;3.92;86.16
71976;BME280;68326;52.124;5.424;2023-03-05T01:43:28;102182.50;;;3.94;86.19
71976;BME280;68326;52.124;5.424;2023-03-05T01:48:44;102185.06;;;3.97;86.17
71976;BME280;68326;52.124;5.424;2023-03-05T01:51:12;102167.03;;;3.99;86.05
71976;BME280;68326;52.124;5.424;2023-03-05T01:53:40;102171.31;;;4.01;85.88
71976;BME280;68326;52.124;5.424;2023-03-05T01:56:07;102163.59;;;4.06;86.77
71976;BME280;68326;52.124;5.424;2023-03-05T01:58:35;102164.47;;;4.08;86.43
71976;BME280;68326;52.124;5.424;2023-03-05T02:01:02;102163.56;;;4.07;85.56
71976;BME280;68326;52.124;5.424;2023-03-05T02:03:29;102149.00;;;4.00;85.69
71976;BME280;68326;52.124;5.424;2023-03-05T02:05:55;102147.31;;;3.98;85.88
71976;BME280;68326;52.124;5.424;2023-03-05T02:08:23;102142.13;;;3.95;85.86
71976;BME280;68326;52.124;5.424;2023-03-05T02:10:54;102142.16;;;3.93;86.25
71976;BME280;68326;52.124;5.424;2023-03-05T02:13:30;102138.75;;;3.91;86.88
71976;BME280;68326;52.124;5.424;2023-03-05T02:15:59;102139.56;;;3.90;86.41
71976;BME280;68326;52.124;5.424;2023-03-05T02:18:27;102131.00;;;3.90;87.34
71976;BME280;68326;52.124;5.424;2023-03-05T02:23:25;102121.53;;;3.88;86.35
71976;BME280;68326;52.124;5.424;2023-03-05T02:25:52;102123.28;;;3.85;86.44
71976;BME280;68326;52.124;5.424;2023-03-05T02:28:53;102113.84;;;3.87;86.67
71976;BME280;68326;52.124;5.424;2023-03-05T02:31:17;102116.41;;;3.93;86.74
71976;BME280;68326;52.124;5.424;2023-03-05T02:33:44;102113.81;;;3.88;86.67
71976;BME280;68326;52.124;5.424;2023-03-05T02:36:11;102106.13;;;3.87;86.78
71976;BME280;68326;52.124;5.424;2023-03-05T02:38:39;102106.13;;;3.87;86.79
71976;BME280;68326;52.124;5.424;2023-03-05T02:41:06;102102.69;;;3.80;86.06
71976;BME280;68326;52.124;5.424;2023-03-05T02:43:32;102101.84;;;3.78;86.11
71976;BME280;68326;52.124;5.424;2023-03-05T02:45:59;102099.28;;;3.78;86.18
71976;BME280;68326;52.124;5.424;2023-03-05T02:48:26;102096.69;;;3.78;86.94
71976;BME280;68326;52.124;5.424;2023-03-05T02:50:53;102098.41;;;3.75;86.91
71976;BME280;68326;52.124;5.424;2023-03-05T02:53:20;102091.53;;;3.75;86.42
71976;BME280;68326;52.124;5.424;2023-03-05T02:55:49;102093.28;;;3.75;86.68
71976;BME280;68326;52.124;5.424;2023-03-05T02:58:16;102084.69;;;3.77;86.91
71976;BME280;68326;52.124;5.424;2023-03-05T03:00:42;102076.94;;;3.80;87.01
71976;BME280;68326;52.124;5.424;2023-03-05T03:03:09;102082.09;;;3.80;86.48
71976;BME280;68326;52.124;5.424;2023-03-05T03:05:36;102075.22;;;3.79;86.48
71976;BME280;68326;52.124;5.424;2023-03-05T03:08:03;102074.38;;;3.77;87.03
71976;BME280;68326;52.124;5.424;2023-03-05T03:10:30;102069.22;;;3.82;87.09
71976;BME280;68326;52.124;5.424;2023-03-05T03:12:56;102064.91;;;3.82;86.62
71976;BME280;68326;52.124;5.424;2023-03-05T03:15:23;102060.66;;;3.83;87.07
71976;BME280;68326;52.124;5.424;2023-03-05T03:17:50;102052.06;;;3.87;87.08
71976;BME280;68326;52.124;5.424;2023-03-05T03:20:17;102052.91;;;3.86;86.96
71976;BME280;68326;52.124;5.424;2023-03-05T03:22:45;102047.75;;;3.80;86.73
71976;BME280;68326;52.124;5.424;2023-03-05T03:25:19;102050.34;;;3.77;86.68
71976;BME280;68326;52.124;5.424;2023-03-05T03:27:46;102046.09;;;3.74;86.54
71976;BME280;68326;52.124;5.424;2023-03-05T03:30:13;102040.91;;;3.70;87.09
71976;BME280;68326;52.124;5.424;2023-03-05T03:32:39;102035.81;;;3.62;87.10
71976;BME280;68326;52.124;5.424;2023-03-05T03:35:06;102046.09;;;3.60;87.71
71976;BME280;68326;52.124;5.424;2023-03-05T03:37:33;102043.50;;;3.65;87.22
71976;BME280;68326;52.124;5.424;2023-03-05T03:39:59;102042.66;;;3.71;87.60
71976;BME280;68326;52.124;5.424;2023-03-05T03:42:26;102037.47;;;3.74;87.57
71976;BME280;68326;52.124;5.424;2023-03-05T03:44:52;102037.50;;;3.71;86.86
71976;BME280;68326;52.124;5.424;2023-03-05T03:47:19;102022.03;;;3.75;88.11
71976;BME280;68326;52.124;5.424;2023-03-05T03:49:45;102021.19;;;3.75;86.98
71976;BME280;68326;52.124;5.424;2023-03-05T03:52:12;102021.19;;;3.65;87.69
71976;BME280;68326;52.124;5.424;2023-03-05T03:54:38;102013.47;;;3.65;88.08
71976;BME280;68326;52.124;5.424;2023-03-05T03:57:05;102008.31;;;3.72;88.11
71976;BME280;68326;52.124;5.424;2023-03-05T03:59:31;102011.75;;;3.77;88.13
71976;BME280;68326;52.124;5.424;2023-03-05T04:01:58;102017.75;;;3.71;88.14
71976;BME280;68326;52.124;5.424;2023-03-05T04:04:24;102017.75;;;3.70;88.19
71976;BME280;68326;52.124;5.424;2023-03-05T04:06:51;102015.19;;;3.70;88.44
71976;BME280;68326;52.124;5.424;2023-03-05T04:09:18;102019.47;;;3.67;87.91
71976;BME280;68326;52.124;5.424;2023-03-05T04:11:44;102014.31;;;3.67;88.71
71976;BME280;68326;52.124;5.424;2023-03-05T04:14:13;101997.19;;;3.65;88.35
71976;BME280;68326;52.124;5.424;2023-03-05T04:16:39;102000.63;;;3.64;89.04
71976;BME280;68326;52.124;5.424;2023-03-05T04:19:06;101998.91;;;3.66;89.37
71976;BME280;68326;52.124;5.424;2023-03-05T04:21:32;101998.91;;;3.66;89.28
71976;BME280;68326;52.124;5.424;2023-03-05T04:23:59;101998.91;;;3.64;88.87
71976;BME280;68326;52.124;5.424;2023-03-05T04:26:25;102003.19;;;3.61;90.01
71976;BME280;68326;52.124;5.424;2023-03-05T04:28:52;101989.47;;;3.59;89.72
71976;BME280;68326;52.124;5.424;2023-03-05T04:31:18;101994.63;;;3.62;90.10
71976;BME280;68326;52.124;5.424;2023-03-05T04:33:46;101990.34;;;3.62;89.68
71976;BME280;68326;52.124;5.424;2023-03-05T04:36:12;101985.19;;;3.62;89.45
71976;BME280;68326;52.124;5.424;2023-03-05T04:38:39;101986.91;;;3.59;90.22
71976;BME280;68326;52.124;5.424;2023-03-05T04:41:05;101980.06;;;3.56;89.95
71976;BME280;68326;52.124;5.424;2023-03-05T04:43:32;101986.03;;;3.57;89.72
71976;BME280;68326;52.124;5.424;2023-03-05T04:45:58;101980.91;;;3.57;90.45
71976;BME280;68326;52.124;5.424;2023-03-05T04:48:25;101972.34;;;3.59;91.13
71976;BME280;68326;52.124;5.424;2023-03-05T04:50:51;101969.75;;;3.56;89.86
71976;BME280;68326;52.124;5.424;2023-03-05T04:53:17;101964.63;;;3.58;90.65
71976;BME280;68326;52.124;5.424;2023-03-05T04:55:44;101966.34;;;3.56;90.47
71976;BME280;68326;52.124;5.424;2023-03-05T04:58:10;101963.75;;;3.56;90.48
71976;BME280;68326;52.124;5.424;2023-03-05T05:00:37;101961.19;;;3.56;90.47
71976;BME280;68326;52.124;5.424;2023-03-05T05:03:04;101955.16;;;3.58;90.97
71976;BME280;68326;52.124;5.424;2023-03-05T05:05:30;101958.59;;;3.53;91.13
71976;BME280;68326;52.124;5.424;2023-03-05T05:07:57;101964.63;;;3.52;90.44
71976;BME280;68326;52.124;5.424;2023-03-05T05:10:24;101962.91;;;3.54;90.87
71976;BME280;68326;52.124;5.424;2023-03-05T05:12:51;101954.31;;;3.55;91.66
71976;BME280;68326;52.124;5.424;2023-03-05T05:15:18;101952.59;;;3.57;91.43
71976;BME280;68326;52.124;5.424;2023-03-05T05:17:45;101953.44;;;3.59;90.80
71976;BME280;68326;52.124;5.424;2023-03-05T05:20:13;101943.16;;;3.59;90.98
71976;BME280;68326;52.124;5.424;2023-03-05T05:22:40;101947.44;;;3.60;91.07
71976;BME280;68326;52.124;5.424;2023-03-05T05:25:07;101939.72;;;3.61;91.13
71976;BME280;68326;52.124;5.424;2023-03-05T05:27:33;101940.56;;;3.59;90.91
71976;BME280;68326;52.124;5.424;2023-03-05T05:30:01;101940.56;;;3.59;90.62
71976;BME280;68326;52.124;5.424;2023-03-05T05:32:27;101940.59;;;3.56;90.54
71976;BME280;68326;52.124;5.424;2023-03-05T05:34:55;101933.72;;;3.55;90.89
71976;BME280;68326;52.124;5.424;2023-03-05T05:37:23;101938.06;;;3.51;91.12
71976;BME280;68326;52.124;5.424;2023-03-05T05:39:50;101932.91;;;3.48;90.90
71976;BME280;68326;52.124;5.424;2023-03-05T05:42:18;101930.31;;;3.50;92.00
71976;BME280;68326;52.124;5.424;2023-03-05T05:44:45;101934.59;;;3.51;91.36
71976;BME280;68326;52.124;5.424;2023-03-05T05:47:14;101930.31;;;3.53;91.21
71976;BME280;68326;52.124;5.424;2023-03-05T05:49:41;101923.44;;;3.50;91.15
71976;BME280;68326;52.124;5.424;2023-03-05T05:52:08;101921.75;;;3.47;91.09
71976;BME280;68326;52.124;5.424;2023-03-05T05:54:34;101926.06;;;3.45;91.13
71976;BME280;68326;52.124;5.424;2023-03-05T05:57:01;101928.66;;;3.42;91.32
71976;BME280;68326;52.124;5.424;2023-03-05T05:59:27;101917.50;;;3.40;91.75
71976;BME280;68326;52.124;5.424;2023-03-05T06:01:54;101918.38;;;3.35;91.23
71976;BME280;68326;52.124;5.424;2023-03-05T06:04:20;101920.09;;;3.28;91.41
71976;BME280;68326;52.124;5.424;2023-03-05T06:06:47;101914.09;;;3.31;92.83
71976;BME280;68326;52.124;5.424;2023-03-05T06:09:13;101923.50;;;3.41;92.89
71976;BME280;68326;52.124;5.424;2023-03-05T06:11:40;101917.50;;;3.46;92.61
71976;BME280;68326;52.124;5.424;2023-03-05T06:14:06;101914.88;;;3.48;92.14
71976;BME280;68326;52.124;5.424;2023-03-05T06:16:34;101922.59;;;3.53;91.95
71976;BME280;68326;52.124;5.424;2023-03-05T06:19:00;101912.31;;;3.50;92.26
71976;BME280;68326;52.124;5.424;2023-03-05T06:21:31;101912.31;;;3.50;91.87
71976;BME280;68326;52.124;5.424;2023-03-05T06:23:58;101911.44;;;3.54;92.21
71976;BME280;68326;52.124;5.424;2023-03-05T06:26:25;101915.72;;;3.55;91.90
71976;BME280;68326;52.124;5.424;2023-03-05T06:28:52;101907.16;;;3.56;92.36
71976;BME280;68326;52.124;5.424;2023-03-05T06:31:22;101914.88;;;3.57;91.87
71976;BME280;68326;52.124;5.424;2023-03-05T06:33:49;101907.16;;;3.51;92.54
71976;BME280;68326;52.124;5.424;2023-03-05T06:36:18;101908.00;;;3.58;91.79
71976;BME280;68326;52.124;5.424;2023-03-05T06:38:45;101908.00;;;3.58;91.89
71976;BME280;68326;52.124;5.424;2023-03-05T06:41:17;101914.84;;;3.59;91.30
71976;BME280;68326;52.124;5.424;2023-03-05T06:43:45;101913.13;;;3.61;92.16
71976;BME280;68326;52.124;5.424;2023-03-05T06:46:31;101909.66;;;3.66;91.78
71976;BME280;68326;52.124;5.424;2023-03-05T06:49:00;101917.38;;;3.65;91.69
71976;BME280;68326;52.124;5.424;2023-03-05T06:51:32;101915.72;;;3.59;91.70
71976;BME280;68326;52.124;5.424;2023-03-05T06:54:02;101921.72;;;3.58;91.71
71976;BME280;68326;52.124;5.424;2023-03-05T06:56:29;101911.44;;;3.52;92.25
71976;BME280;68326;52.124;5.424;2023-03-05T06:58:56;101908.88;;;3.52;92.08
71976;BME280;68326;52.124;5.424;2023-03-05T07:01:22;101909.75;;;3.50;91.64
71976;BME280;68326;52.124;5.424;2023-03-05T07:03:50;101905.44;;;3.50;92.52
71976;BME280;68326;52.124;5.424;2023-03-05T07:06:18;101913.16;;;3.52;92.12
71976;BME280;68326;52.124;5.424;2023-03-05T07:08:44;101908.00;;;3.58;91.68
71976;BME280;68326;52.124;5.424;2023-03-05T07:11:13;101913.13;;;3.62;92.68
71976;BME280;68326;52.124;5.424;2023-03-05T07:13:41;101903.69;;;3.64;92.11
71976;BME280;68326;52.124;5.424;2023-03-05T07:16:12;101907.97;;;3.64;92.08
71976;BME280;68326;52.124;5.424;2023-03-05T07:18:39;101901.94;;;3.65;91.88
71976;BME280;68326;52.124;5.424;2023-03-05T07:21:07;101905.34;;;3.72;91.22
71976;BME280;68326;52.124;5.424;2023-03-05T07:23:34;101903.66;;;3.67;90.82
71976;BME280;68326;52.124;5.424;2023-03-05T07:26:05;101904.53;;;3.66;91.60
71976;BME280;68326;52.124;5.424;2023-03-05T07:28:32;101903.69;;;3.66;91.79
71976;BME280;68326;52.124;5.424;2023-03-05T07:31:02;101907.06;;;3.71;92.28
71976;BME280;68326;52.124;5.424;2023-03-05T07:33:29;101911.34;;;3.75;91.70
71976;BME280;68326;52.124;5.424;2023-03-05T07:35:57;101907.03;;;3.83;91.64
71976;BME280;68326;52.124;5.424;2023-03-05T07:38:23;101906.13;;;3.87;91.95
71976;BME280;68326;52.124;5.424;2023-03-05T07:40:50;101912.13;;;3.86;92.12
71976;BME280;68326;52.124;5.424;2023-03-05T07:43:16;101906.13;;;3.86;91.58
71976;BME280;68326;52.124;5.424;2023-03-05T07:45:44;101901.00;;;3.89;91.67
71976;BME280;68326;52.124;5.424;2023-03-05T07:48:13;101899.22;;;3.93;91.99
71976;BME280;68326;52.124;5.424;2023-03-05T07:50:40;101896.66;;;3.96;91.77
71976;BME280;68326;52.124;5.424;2023-03-05T07:53:07;101896.66;;;3.93;91.50
71976;BME280;68326;52.124;5.424;2023-03-05T07:55:34;101897.50;;;3.95;91.67
71976;BME280;68326;52.124;5.424;2023-03-05T07:58:00;101899.22;;;3.94;90.79
71976;BME280;68326;52.124;5.424;2023-03-05T08:00:27;101900.94;;;3.97;91.49
71976;BME280;68326;52.124;5.424;2023-03-05T08:02:53;101898.31;;;4.04;90.19
71976;BME280;68326;52.124;5.424;2023-03-05T08:05:20;101891.41;;;4.11;90.47
71976;BME280;68326;52.124;5.424;2023-03-05T08:07:46;101884.44;;;4.22;90.43
71976;BME280;68326;52.124;5.424;2023-03-05T08:10:12;101882.66;;;4.29;90.33
71976;BME280;68326;52.124;5.424;2023-03-05T08:12:39;101881.75;;;4.38;90.76
71976;BME280;68326;52.124;5.424;2023-03-05T08:15:06;101886.88;;;4.42;90.23
71976;BME280;68326;52.124;5.424;2023-03-05T08:17:33;101882.63;;;4.35;89.52
71976;BME280;68326;52.124;5.424;2023-03-05T08:19:59;101879.19;;;4.36;90.26
71976;BME280;68326;52.124;5.424;2023-03-05T08:22:33;101878.34;;;4.36;89.33
71976;BME280;68326;52.124;5.424;2023-03-05T08:25:00;101886.06;;;4.37;89.86
71976;BME280;68326;52.124;5.424;2023-03-05T08:27:26;101869.69;;;4.41;88.72
71976;BME280;68326;52.124;5.424;2023-03-05T08:29:53;101876.59;;;4.38;88.62
71976;BME280;68326;52.124;5.424;2023-03-05T08:32:19;101868.84;;;4.39;89.22
71976;BME280;68326;52.124;5.424;2023-03-05T08:34:46;101869.66;;;4.51;89.52
71976;BME280;68326;52.124;5.424;2023-03-05T08:37:12;101862.66;;;4.59;89.71
71976;BME280;68326;52.124;5.424;2023-03-05T08:39:39;101861.78;;;4.64;88.29
71976;BME280;68326;52.124;5.424;2023-03-05T08:42:06;101861.66;;;4.75;89.71
71976;BME280;68326;52.124;5.424;2023-03-05T08:44:34;101857.22;;;4.91;89.46
71976;BME280;68326;52.124;5.424;2023-03-05T08:47:00;101858.00;;;4.98;88.30
71976;BME280;68326;52.124;5.424;2023-03-05T08:49:27;101848.47;;;5.06;87.96
71976;BME280;68326;52.124;5.424;2023-03-05T08:51:53;101845.00;;;5.05;87.16
71976;BME280;68326;52.124;5.424;2023-03-05T08:54:20;101850.28;;;4.95;87.42
71976;BME280;68326;52.124;5.424;2023-03-05T08:56:46;101845.97;;;4.97;86.58
71976;BME280;68326;52.124;5.424;2023-03-05T08:59:14;101840.03;;;4.90;86.19
71976;BME280;68326;52.124;5.424;2023-03-05T09:01:41;101836.66;;;4.85;86.37
71976;BME280;68326;52.124;5.424;2023-03-05T09:04:08;101833.06;;;4.97;86.60
71976;BME280;68326;52.124;5.424;2023-03-05T09:06:34;101838.22;;;4.98;87.57
71976;BME280;68326;52.124;5.424;2023-03-05T09:09:05;101836.38;;;5.09;86.02
71976;BME280;68326;52.124;5.424;2023-03-05T09:11:33;101844.16;;;5.05;86.12
71976;BME280;68326;52.124;5.424;2023-03-05T09:14:05;101839.84;;;5.07;86.04
71976;BME280;68326;52.124;5.424;2023-03-05T09:16:32;101832.94;;;5.07;86.28
71976;BME280;68326;52.124;5.424;2023-03-05T09:18:59;101832.88;;;5.14;85.45
71976;BME280;68326;52.124;5.424;2023-03-05T09:21:25;101829.53;;;5.07;85.34
71976;BME280;68326;52.124;5.424;2023-03-05T09:23:51;101828.47;;;5.22;85.49
71976;BME280;68326;52.124;5.424;2023-03-05T09:26:18;101837.06;;;5.24;84.87
71976;BME280;68326;52.124;5.424;2023-03-05T09:28:46;101834.47;;;5.24;83.96
71976;BME280;68326;52.124;5.424;2023-03-05T09:31:12;101826.75;;;5.22;83.15
71976;BME280;68326;52.124;5.424;2023-03-05T09:33:39;101831.00;;;5.28;83.62
71976;BME280;68326;52.124;5.424;2023-03-05T09:36:26;101824.94;;;5.30;83.53
71976;BME280;68326;52.124;5.424;2023-03-05T09:38:54;101822.28;;;5.35;83.87
71976;BME280;68326;52.124;5.424;2023-03-05T09:41:50;101823.94;;;5.41;82.45
71976;BME280;68326;52.124;5.424;2023-03-05T09:46:51;101823.88;;;5.47;82.64
71976;BME280;68326;52.124;5.424;2023-03-05T09:49:47;101827.16;;;5.57;82.63
71976;BME280;68326;52.124;5.424;2023-03-05T09:52:20;101821.97;;;5.58;82.85
71976;BME280;68326;52.124;5.424;2023-03-05T09:54:53;101824.47;;;5.64;82.63
71976;BME280;68326;52.124;5.424;2023-03-05T09:57:35;101818.41;;;5.67;81.96
71976;BME280;68326;52.124;5.424;2023-03-05T10:00:10;101814.00;;;5.77;83.14
71976;BME280;68326;52.124;5.424;2023-03-05T10:02:49;101813.00;;;5.84;82.37
71976;BME280;68326;52.124;5.424;2023-03-05T10:08:13;101802.56;;;5.93;81.42
71976;BME280;68326;52.124;5.424;2023-03-05T10:10:47;101801.84;;;5.82;81.87
71976;BME280;68326;52.124;5.424;2023-03-05T10:13:23;101797.47;;;5.87;81.33
71976;BME280;68326;52.124;5.424;2023-03-05T10:18:45;101795.44;;;6.07;80.48
71976;BME280;68326;52.124;5.424;2023-03-05T10:21:23;101792.00;;;6.08;79.41
71976;BME280;68326;52.124;5.424;2023-03-05T10:24:15;101786.78;;;6.11;78.79
71976;BME280;68326;52.124;5.424;2023-03-05T10:30:42;101786.72;;;6.15;78.14
71976;BME280;68326;52.124;5.424;2023-03-05T10:40:50;101766.66;;;6.29;77.20
71976;BME280;68326;52.124;5.424;2023-03-05T10:43:38;101765.69;;;6.36;76.46
71976;BME280;68326;52.124;5.424;2023-03-05T10:46:16;101763.66;;;6.52;75.93
71976;BME280;68326;52.124;5.424;2023-03-05T10:48:54;101764.47;;;6.54;74.43
71976;BME280;68326;52.124;5.424;2023-03-05T10:51:32;101760.94;;;6.60;74.89
71976;BME280;68326;52.124;5.424;2023-03-05T10:54:10;101755.84;;;6.55;72.29
71976;BME280;68326;52.124;5.424;2023-03-05T10:56:41;101752.50;;;6.50;73.16
71976;BME280;68326;52.124;5.424;2023-03-05T10:59:07;101746.16;;;6.66;72.36
71976;BME280;68326;52.124;5.424;2023-03-05T11:01:34;101740.44;;;6.92;74.59
71976;BME280;68326;52.124;5.424;2023-03-05T11:04:05;101738.06;;;7.24;72.42
71976;BME280;68326;52.124;5.424;2023-03-05T11:06:40;101733.31;;;7.43;69.66
71976;BME280;68326;52.124;5.424;2023-03-05T11:14:35;101723.59;;;7.88;68.34
71976;BME280;68326;52.124;5.424;2023-03-05T11:17:32;101718.72;;;7.76;67.27
71976;BME280;68326;52.124;5.424;2023-03-05T11:23:11;101719.13;;;7.22;68.35
71976;BME280;68326;52.124;5.424;2023-03-05T11:28:19;101707.41;;;7.80;66.05
71976;BME280;68326;52.124;5.424;2023-03-05T11:33:56;101687.91;;;8.00;65.59
71976;BME280;68326;52.124;5.424;2023-03-05T11:36:28;101687.78;;;8.04;66.11
71976;BME280;68326;52.124;5.424;2023-03-05T11:41:38;101679.78;;;8.76;66.24
71976;BME280;68326;52.124;5.424;2023-03-05T11:44:12;101680.88;;;9.25;64.10
71976;BME280;68326;52.124;5.424;2023-03-05T11:46:46;101677.03;;;8.81;61.37
71976;BME280;68326;52.124;5.424;2023-03-05T11:49:20;101676.34;;;8.44;63.96
71976;BME280;68326;52.124;5.424;2023-03-05T11:51:58;101672.94;;;8.44;62.85
71976;BME280;68326;52.124;5.424;2023-03-05T11:54:35;101667.72;;;8.11;64.13
71976;BME280;68326;52.124;5.424;2023-03-05T11:57:05;101664.38;;;7.73;60.66
71976;BME280;68326;52.124;5.424;2023-03-05T11:59:34;101660.91;;;7.74;61.65
71976;BME280;68326;52.124;5.424;2023-03-05T12:02:17;101654.53;;;7.87;61.77
71976;BME280;68326;52.124;5.424;2023-03-05T12:04:46;101647.91;;;8.08;62.34
71976;BME280;68326;52.124;5.424;2023-03-05T12:07:16;101647.38;;;7.97;62.28
71976;BME280;68326;52.124;5.424;2023-03-05T12:09:47;101645.22;;;7.80;63.28
71976;BME280;68326;52.124;5.424;2023-03-05T12:12:43;101640.66;;;7.88;62.96
71976;BME280;68326;52.124;5.424;2023-03-05T12:15:28;101636.13;;;7.96;63.13
71976;BME280;68326;52.124;5.424;2023-03-05T12:23:55;101621.09;;;7.78;65.25
71976;BME280;68326;52.124;5.424;2023-03-05T12:35:04;101596.00;;;7.80;61.98
71976;BME280;68326;52.124;5.424;2023-03-05T12:53:18;101569.28;;;7.78;65.22
71976;BME280;68326;52.124;5.424;2023-03-05T13:03:49;101556.41;;;7.42;63.01
71976;BME280;68326;52.124;5.424;2023-03-05T13:06:29;101552.50;;;7.59;62.66
71976;BME280;68326;52.124;5.424;2023-03-05T13:09:14;101539.41;;;7.96;62.61
71976;BME280;68326;52.124;5.424;2023-03-05T13:11:45;101532.53;;;7.95;62.11
71976;BME280;68326;52.124;5.424;2023-03-05T13:14:36;101531.19;;;8.11;63.10
71976;BME280;68326;52.124;5.424;2023-03-05T13:20:03;101527.06;;;8.34;61.05
71976;BME280;68326;52.124;5.424;2023-03-05T13:22:47;101521.63;;;8.43;59.95
71976;BME280;68326;52.124;5.424;2023-03-05T13:25:16;101521.22;;;8.57;59.97
71976;BME280;68326;52.124;5.424;2023-03-05T13:27:45;101510.22;;;8.49;60.80
71976;BME280;68326;52.124;5.424;2023-03-05T13:30:26;101520.63;;;8.47;59.40
71976;BME280;68326;52.124;5.424;2023-03-05T13:32:58;101506.19;;;8.38;58.04
71976;BME280;68326;52.124;5.424;2023-03-05T13:35:29;101497.13;;;8.24;58.62
71976;BME280;68326;52.124;5.424;2023-03-05T13:37:57;101494.53;;;8.24;58.07
71976;BME280;68326;52.124;5.424;2023-03-05T13:40:29;101494.78;;;8.16;59.03
71976;BME280;68326;52.124;5.424;2023-03-05T13:43:10;101495.13;;;8.04;59.73
71976;BME280;68326;52.124;5.424;2023-03-05T13:45:39;101487.25;;;8.07;59.17
71976;BME280;68326;52.124;5.424;2023-03-05T13:48:06;101481.88;;;8.13;59.89
71976;BME280;68326;52.124;5.424;2023-03-05T13:50:38;101481.28;;;8.33;59.66
71976;BME280;68326;52.124;5.424;2023-03-05T13:53:17;101477.00;;;8.32;59.36
71976;BME280;68326;52.124;5.424;2023-03-05T13:55:46;101465.38;;;8.15;59.29
71976;BME280;68326;52.124;5.424;2023-03-05T13:58:39;101475.53;;;8.23;60.00
71976;BME280;68326;52.124;5.424;2023-03-05T14:03:39;101470.34;;;7.95;60.40
71976;BME280;68326;52.124;5.424;2023-03-05T14:06:10;101466.25;;;7.57;61.03
71976;BME280;68326;52.124;5.424;2023-03-05T14:08:38;101467.72;;;7.34;62.28
71976;BME280;68326;52.124;5.424;2023-03-05T14:11:15;101462.72;;;7.26;61.65
71976;BME280;68326;52.124;5.424;2023-03-05T14:13:43;101455.72;;;7.31;62.08
71976;BME280;68326;52.124;5.424;2023-03-05T14:16:25;101451.25;;;7.37;61.79
71976;BME280;68326;52.124;5.424;2023-03-05T14:18:54;101454.63;;;7.39;60.75
71976;BME280;68326;52.124;5.424;2023-03-05T14:21:21;101446.75;;;7.43;60.90
71976;BME280;68326;52.124;5.424;2023-03-05T14:23:51;101443.47;;;7.37;59.85
71976;BME280;68326;52.124;5.424;2023-03-05T14:26:24;101440.03;;;7.36;61.27
71976;BME280;68326;52.124;5.424;2023-03-05T14:29:03;101432.00;;;7.45;60.98
71976;BME280;68326;52.124;5.424;2023-03-05T14:31:44;101428.44;;;7.49;61.59
71976;BME280;68326;52.124;5.424;2023-03-05T14:34:29;101427.00;;;7.99;59.71
71976;BME280;68326;52.124;5.424;2023-03-05T14:37:04;101422.59;;;8.02;58.91